• Join FlightAware (Why Join?)
  • Login
  • US Flag 
12:59PM EDT


 

Airport Tracker/Info


-or-


 

Live Flight TrackerFlight Track Log ✈ N509QS ✈ 14-Jul-2013 ✈ N30 - KROC

Flight Track Log - Related Links

Times and Time Zones

All times are in EDT time to prevent confusion due to time zone crossing. See the N509QS flight status page for this flight to view local times or setup timezone preferences in your user account.

Time Position Orientation Groundspeed Altitude Reporting Facility
EDT Latitude Longitude Course Direction KTS MPH feet Rate Location/Type
12:48PM 41.7264 -75.3594 315° West 354 407 10,000  Level New York Center
12:49PM 41.7911 -75.4642 310° West 380 437 10,000 1,260 Level New York Center
12:50PM 41.8536 -75.5689 309° West 374 430 12,600 2,820 Climbing New York Center
12:51PM 41.9142 -75.6650 310° West 373 429 15,700 1,680 Climbing New York Center
12:52PM 41.9922 -75.7908 310° West 384 442 16,000 120 Climbing New York Center
12:53PM 42.0486 -75.8844 309° West 396 456 16,000  Level New York Center
12:54PM 42.0149 -75.9865 315° West  Level FlightAware Approximate
12:54PM 42.1244 -76.0078 310° West 396 456 16,000  Level New York Center
12:58PM 42.3611 -76.3958 310° West 395 455 16,000  Level Cleveland Center
12:59PM 42.4300 -76.5094 309° West 395 455 16,100  Climbing Cleveland Center
01:00PM 42.5028 -76.6286 310° West 400 460 16,100  Level Cleveland Center
01:01PM 42.5714 -76.7428 309° West 400 460 16,100 -180 Level Cleveland Center
01:02PM 42.6375 -76.8544 309° West 400 460 15,800 -1,080 Descending Cleveland Center
01:03PM 42.7081 -76.9719 309° West 405 466 14,000 -1,920 Descending Cleveland Center
01:05PM 42.8431 -77.1625 314° West 377 434 10,200 -1,860 Descending Cleveland Center
01:06PM 42.9133 -77.2125 332° Northwest 321 369 8,500 -1,860 Descending Cleveland Center
01:07PM 42.9794 -77.2628 331° Northwest 289 333 6,500 -1,260 Descending Cleveland Center
01:08PM 43.0456 -77.3133 331° Northwest 275 316 6,000 -480 Descending Cleveland Center
01:09PM 43.0994 -77.3786 319° Northwest 270 311 5,600 -900 Descending Cleveland Center
01:10PM 43.1328 -77.4536 301° West 242 278 4,200 -1,320 Descending Cleveland Center
01:11PM 43.1594 -77.5150 301° West 216 249 3,000 -1,020 Descending Cleveland Center
01:12PM 43.1797 -77.5767 294° West 193 222 2,200 -720 Descending Cleveland Center
01:13PM 43.1628 -77.6400 250° West 117 135 1,400 -600 Descending Cleveland Center
01:14PM 43.1425 -77.6611 217° Southwest 121 139 1,000 -600 Descending Cleveland Center
01:16PM 43.1191 -77.6719 199° South  Level Estimated
01:23PM 43.1191 -77.6719 14° North  Level Estimated